createdAt,value
2023-01-04T00:02:28.289Z,29.33
2023-01-04T00:04:56.550Z,30.25
2023-01-04T00:07:24.800Z,30.27
2023-01-04T00:09:52.993Z,33.70
2023-01-04T00:12:21.382Z,32.60
2023-01-04T00:14:49.585Z,31.92
2023-01-04T00:17:20.330Z,29.75
2023-01-04T00:19:48.500Z,29.67
2023-01-04T00:22:16.680Z,30.52
2023-01-04T00:24:44.876Z,30.42
2023-01-04T00:27:13.140Z,30.00
2023-01-04T00:29:41.317Z,29.63
2023-01-04T00:32:09.537Z,30.20
2023-01-04T00:34:37.707Z,28.65
2023-01-04T00:37:06.073Z,28.77
2023-01-04T00:39:34.308Z,28.70
2023-01-04T00:42:05.410Z,30.98
2023-01-04T00:44:35.136Z,29.05
2023-01-04T00:47:04.873Z,27.48
2023-01-04T00:49:33.626Z,30.48
2023-01-04T00:52:02.183Z,28.85
2023-01-04T00:54:30.353Z,28.90
2023-01-04T00:56:59.282Z,31.23
2023-01-04T00:59:28.222Z,28.55
2023-01-04T01:01:57.054Z,29.17
2023-01-04T01:04:25.789Z,29.90
2023-01-04T01:06:54.311Z,30.05
2023-01-04T01:09:23.323Z,27.63
2023-01-04T01:11:53.378Z,30.63
2023-01-04T01:14:24.288Z,31.70
2023-01-04T01:16:55.898Z,30.92
2023-01-04T01:19:27.594Z,30.67
2023-01-04T01:21:58.654Z,31.52
2023-01-04T01:24:27.555Z,33.13
2023-01-04T01:26:56.375Z,30.90
2023-01-04T01:29:24.725Z,33.08
2023-01-04T01:31:53.253Z,32.97
2023-01-04T01:34:21.493Z,31.05
2023-01-04T01:36:50.158Z,33.85
2023-01-04T01:39:18.332Z,28.27
2023-01-04T01:41:46.831Z,29.60
2023-01-04T01:44:33.891Z,31.05
2023-01-04T01:47:02.579Z,31.30
2023-01-04T01:49:38.583Z,30.45
2023-01-04T01:52:13.994Z,28.45
2023-01-04T01:54:57.066Z,29.20
2023-01-04T01:57:29.164Z,28.13
2023-01-04T02:00:05.219Z,28.27
2023-01-04T02:03:07.463Z,28.50
2023-01-04T02:05:37.371Z,29.58
2023-01-04T02:08:06.877Z,30.10
2023-01-04T02:10:35.386Z,28.73
2023-01-04T02:13:09.255Z,29.60
2023-01-04T02:16:04.590Z,28.42
2023-01-04T02:18:42.191Z,30.08
2023-01-04T02:21:29.276Z,27.88
2023-01-04T02:24:11.370Z,27.58
2023-01-04T02:26:57.380Z,26.90
2023-01-04T02:29:57.266Z,26.27
2023-01-04T02:32:46.957Z,28.45
2023-01-04T02:35:40.994Z,28.20
2023-01-04T02:38:26.896Z,27.33
2023-01-04T02:41:16.410Z,27.77
2023-01-04T02:44:28.905Z,27.23
2023-01-04T02:47:39.866Z,28.73
2023-01-04T02:50:36.362Z,27.30
2023-01-04T02:53:18.787Z,27.45
2023-01-04T02:56:18.144Z,26.38
2023-01-04T02:59:08.020Z,27.17
2023-01-04T03:02:10.432Z,26.52
2023-01-04T03:05:02.829Z,27.33
2023-01-04T03:07:41.596Z,27.00
2023-01-04T03:10:33.940Z,26.58
2023-01-04T03:13:12.975Z,25.58
2023-01-04T03:15:43.362Z,27.20
2023-01-04T03:18:26.648Z,25.52
2023-01-04T03:20:58.279Z,26.42
2023-01-04T03:23:49.151Z,27.13
2023-01-04T03:26:48.856Z,26.35
2023-01-04T03:30:02.664Z,26.67
2023-01-04T03:33:01.633Z,26.90
2023-01-04T03:36:12.228Z,25.60
2023-01-04T03:39:26.459Z,25.50
2023-01-04T03:42:27.349Z,25.75
2023-01-04T03:45:36.515Z,26.63
2023-01-04T03:48:30.605Z,24.92
2023-01-04T03:51:33.765Z,26.48
2023-01-04T03:54:21.305Z,27.38
2023-01-04T03:56:52.437Z,25.77
2023-01-04T03:59:22.788Z,24.52
2023-01-04T04:01:51.396Z,25.48
2023-01-04T04:04:38.262Z,23.75
2023-01-04T04:07:25.100Z,25.23
2023-01-04T04:09:53.292Z,23.95
2023-01-04T04:12:21.544Z,24.63
2023-01-04T04:14:49.789Z,22.55
2023-01-04T04:17:18.008Z,24.27
2023-01-04T04:19:46.189Z,23.52
2023-01-04T04:22:14.418Z,24.10
2023-01-04T04:24:42.551Z,24.77
2023-01-04T04:27:10.791Z,23.25
2023-01-04T04:29:39.023Z,22.52
2023-01-04T04:32:07.275Z,23.65
2023-01-04T04:34:36.627Z,23.00
2023-01-04T04:37:04.902Z,23.40
2023-01-04T04:39:33.103Z,22.70
2023-01-04T04:42:01.344Z,23.83
2023-01-04T04:44:29.608Z,23.15
2023-01-04T04:46:57.825Z,23.67
2023-01-04T04:49:26.074Z,22.90
2023-01-04T04:51:54.380Z,23.35
2023-01-04T04:54:22.716Z,22.50
2023-01-04T04:56:51.221Z,24.98
2023-01-04T04:59:19.646Z,22.58
2023-01-04T05:01:48.096Z,24.90
2023-01-04T05:04:19.378Z,22.50
2023-01-04T05:06:49.550Z,22.25
2023-01-04T05:09:17.929Z,24.65
2023-01-04T05:12:04.565Z,23.88
2023-01-04T05:14:32.790Z,24.23
2023-01-04T05:17:01.038Z,21.88
2023-01-04T05:19:29.379Z,22.70
2023-01-04T05:21:57.785Z,21.45
2023-01-04T05:24:26.058Z,22.95
2023-01-04T05:26:54.277Z,22.88
2023-01-04T05:29:41.016Z,21.80
2023-01-04T05:32:09.359Z,21.35
2023-01-04T05:34:37.614Z,22.15
2023-01-04T05:37:05.837Z,22.75
2023-01-04T05:39:33.996Z,21.75
2023-01-04T05:42:20.701Z,20.40
2023-01-04T05:44:48.873Z,22.60
2023-01-04T05:47:20.361Z,21.70
2023-01-04T05:49:48.770Z,20.90
2023-01-04T05:52:17.656Z,19.92
2023-01-04T05:54:45.956Z,21.83
2023-01-04T05:57:14.857Z,21.30
2023-01-04T05:59:43.156Z,20.45
2023-01-04T06:02:16.746Z,20.23
2023-01-04T06:04:45.663Z,20.60
2023-01-04T06:07:14.671Z,20.65
2023-01-04T06:09:43.511Z,19.85
2023-01-04T06:12:12.274Z,20.42
2023-01-04T06:14:43.310Z,20.42
2023-01-04T06:17:11.692Z,20.83
2023-01-04T06:19:40.087Z,18.52
2023-01-04T06:22:08.765Z,20.70
2023-01-04T06:24:36.986Z,20.90
2023-01-04T06:27:05.329Z,20.17
2023-01-04T06:29:34.227Z,19.85
2023-01-04T06:32:02.501Z,21.13
2023-01-04T06:34:32.127Z,19.95
2023-01-04T06:37:00.619Z,21.35
2023-01-04T06:39:47.220Z,20.45
2023-01-04T06:42:36.645Z,21.55
2023-01-04T06:45:05.282Z,20.10
2023-01-04T06:47:33.581Z,20.88
2023-01-04T06:50:01.928Z,20.25
2023-01-04T06:52:30.320Z,23.27
2023-01-04T06:54:58.555Z,21.25
2023-01-04T06:57:27.722Z,21.80
2023-01-04T06:59:56.003Z,20.63
2023-01-04T07:02:24.572Z,21.55
2023-01-04T07:04:52.925Z,22.05
2023-01-04T07:07:21.248Z,22.00
2023-01-04T07:09:49.435Z,21.60
2023-01-04T07:12:17.708Z,20.63
2023-01-04T07:14:45.887Z,20.35
2023-01-04T07:17:14.185Z,19.08
2023-01-04T07:19:42.377Z,18.10
2023-01-04T07:22:10.668Z,19.90
2023-01-04T07:24:38.931Z,21.70
2023-01-04T07:27:07.348Z,20.40
2023-01-04T07:29:35.593Z,20.23
2023-01-04T07:32:07.706Z,19.98
2023-01-04T07:34:40.114Z,18.92
2023-01-04T07:37:13.160Z,20.95
2023-01-04T07:39:41.788Z,19.75
2023-01-04T07:42:11.060Z,21.33
2023-01-04T07:44:39.274Z,21.48
2023-01-04T07:47:07.600Z,21.40
2023-01-04T07:49:35.806Z,23.17
2023-01-04T07:52:04.115Z,24.75
2023-01-04T07:54:32.367Z,19.70
2023-01-04T07:57:00.586Z,20.45
2023-01-04T07:59:28.832Z,21.58
2023-01-04T08:01:57.167Z,21.85
2023-01-04T08:04:31.133Z,21.58
2023-01-04T08:07:02.809Z,23.77
2023-01-04T08:09:31.028Z,23.05
2023-01-04T08:11:59.256Z,23.42
2023-01-04T08:14:27.484Z,23.73
2023-01-04T08:16:55.726Z,23.85
2023-01-04T08:19:23.937Z,24.92
2023-01-04T08:21:52.225Z,23.42
2023-01-04T08:24:20.838Z,23.40
2023-01-04T08:26:49.259Z,23.33
2023-01-04T08:29:17.577Z,24.73
2023-01-04T08:31:45.935Z,23.05
2023-01-04T08:34:14.133Z,24.33
2023-01-04T08:36:50.795Z,23.60
2023-01-04T08:39:19.222Z,24.85
2023-01-04T08:42:00.480Z,22.35
2023-01-04T08:44:35.147Z,22.40
2023-01-04T08:47:03.995Z,23.73
2023-01-04T08:49:32.318Z,24.45
2023-01-04T08:52:00.617Z,24.13
2023-01-04T08:54:28.836Z,22.77
2023-01-04T08:56:57.056Z,23.50
2023-01-04T08:59:25.320Z,27.23
2023-01-04T09:01:53.715Z,25.50
2023-01-04T09:04:22.085Z,25.45
2023-01-04T09:06:50.569Z,25.02
2023-01-04T09:09:18.860Z,25.23
2023-01-04T09:11:47.156Z,24.88
2023-01-04T09:14:15.364Z,23.00
2023-01-04T09:16:43.792Z,24.80
2023-01-04T09:19:16.630Z,24.77
2023-01-04T09:21:48.253Z,24.48
2023-01-04T09:24:16.627Z,24.20
2023-01-04T09:26:47.392Z,24.27
2023-01-04T09:29:15.873Z,25.00
2023-01-04T09:31:44.153Z,24.60
2023-01-04T09:34:16.481Z,24.67
2023-01-04T09:36:47.330Z,25.85
2023-01-04T09:39:22.238Z,22.48
2023-01-04T09:42:12.778Z,22.63
2023-01-04T09:47:55.806Z,22.77
2023-01-04T09:50:50.990Z,21.08
2023-01-04T09:53:29.917Z,23.23
2023-01-04T09:56:09.195Z,23.73
2023-01-04T09:58:41.275Z,24.85
2023-01-04T10:01:15.669Z,22.70
2023-01-04T10:03:59.983Z,21.67
2023-01-04T10:06:28.872Z,20.73
2023-01-04T10:09:04.888Z,23.15
2023-01-04T10:11:46.527Z,22.42
2023-01-04T10:14:26.350Z,22.38
2023-01-04T10:17:12.569Z,23.70
2023-01-04T10:23:23.421Z,22.25
2023-01-04T10:26:13.944Z,25.13
2023-01-04T10:29:07.791Z,25.15
2023-01-04T10:34:24.573Z,24.55
2023-01-04T10:36:59.836Z,24.80
2023-01-04T10:39:32.965Z,25.27
2023-01-04T10:42:24.965Z,23.95
2023-01-04T10:45:21.072Z,22.27
2023-01-04T10:47:57.683Z,22.33
2023-01-04T10:50:51.944Z,22.65
2023-01-04T10:53:50.372Z,21.00
2023-01-04T10:56:24.537Z,21.50
2023-01-04T10:58:57.646Z,21.17
2023-01-04T11:01:43.833Z,22.58
2023-01-04T11:04:30.315Z,23.83
2023-01-04T11:07:19.215Z,21.60
2023-01-04T11:09:47.481Z,21.48
2023-01-04T11:12:19.188Z,22.17
2023-01-04T11:14:48.434Z,21.80
2023-01-04T11:17:16.859Z,23.38
2023-01-04T11:19:45.247Z,22.45
2023-01-04T11:22:33.462Z,23.38
2023-01-04T11:25:34.522Z,22.48
2023-01-04T11:28:01.057Z,21.70
2023-01-04T11:30:46.478Z,24.58
2023-01-04T11:33:20.858Z,25.67
2023-01-04T11:35:55.761Z,24.80
2023-01-04T11:38:27.907Z,22.65
2023-01-04T11:40:57.631Z,22.27
2023-01-04T11:43:28.360Z,22.60
2023-01-04T11:46:00.474Z,20.65
2023-01-04T11:48:36.091Z,22.02
2023-01-04T11:51:05.551Z,19.60
2023-01-04T11:53:38.099Z,18.77
2023-01-04T11:56:17.306Z,20.90
2023-01-04T11:59:04.927Z,19.13
2023-01-04T12:01:36.234Z,18.95
2023-01-04T12:04:15.295Z,18.35
2023-01-04T12:06:53.971Z,13.68
2023-01-04T12:09:22.521Z,10.77
2023-01-04T12:12:01.349Z,9.05
2023-01-04T12:14:32.774Z,8.07
2023-01-04T12:17:12.305Z,7.15
2023-01-04T12:19:45.680Z,8.05
2023-01-04T12:22:36.919Z,9.25
2023-01-04T12:25:22.169Z,8.35
2023-01-04T12:27:52.927Z,8.95
2023-01-04T12:30:45.674Z,9.20
2023-01-04T12:33:34.084Z,10.23
2023-01-04T12:36:04.907Z,9.18
2023-01-04T12:38:54.580Z,10.52
2023-01-04T12:42:00.289Z,10.35
2023-01-04T12:44:43.088Z,11.40
2023-01-04T12:47:38.841Z,12.10
2023-01-04T12:50:11.804Z,12.38
2023-01-04T12:55:32.760Z,14.88
2023-01-04T12:58:28.280Z,14.93
2023-01-04T13:01:20.681Z,16.50
2023-01-04T13:03:49.386Z,16.90
2023-01-04T13:06:22.560Z,16.92
2023-01-04T13:08:52.970Z,16.90
2023-01-04T13:12:12.493Z,15.90
2023-01-04T13:14:46.970Z,14.98
2023-01-04T13:17:22.117Z,15.82
2023-01-04T13:19:50.979Z,16.58
2023-01-04T13:22:30.011Z,15.15
2023-01-04T13:25:00.457Z,16.15
2023-01-04T13:27:29.013Z,15.73
2023-01-04T13:29:57.408Z,17.20
2023-01-04T13:32:28.323Z,16.17
2023-01-04T13:35:00.628Z,16.35
2023-01-04T13:37:38.045Z,17.27
2023-01-04T13:40:24.551Z,18.50
2023-01-04T13:43:23.925Z,16.85
2023-01-04T13:46:13.237Z,19.85
2023-01-04T13:48:44.499Z,17.40
2023-01-04T13:51:18.241Z,20.38
2023-01-04T13:53:53.706Z,20.15
2023-01-04T13:56:25.467Z,18.92
2023-01-04T13:58:54.232Z,19.65
2023-01-04T14:01:31.622Z,17.52
2023-01-04T14:04:18.869Z,19.58
2023-01-04T14:06:52.998Z,18.42
2023-01-04T14:09:35.442Z,19.05
2023-01-04T14:12:15.753Z,19.17
2023-01-04T14:14:49.940Z,18.20
2023-01-04T14:17:36.935Z,19.33
2023-01-04T14:20:12.785Z,18.35
2023-01-04T14:22:45.730Z,17.92
2023-01-04T14:25:37.925Z,17.42
2023-01-04T14:28:30.329Z,17.38
2023-01-04T14:31:06.492Z,17.33
2023-01-04T14:33:47.630Z,17.08
2023-01-04T14:36:31.260Z,17.38
2023-01-04T14:41:52.001Z,17.65
2023-01-04T14:44:22.726Z,19.02
2023-01-04T14:46:56.304Z,19.10
2023-01-04T14:49:27.072Z,18.50
2023-01-04T14:52:00.759Z,20.42
2023-01-04T14:54:30.288Z,19.00
2023-01-04T14:56:59.226Z,20.48
2023-01-04T14:59:28.709Z,19.55
2023-01-04T15:01:58.186Z,19.27
2023-01-04T15:04:26.661Z,20.65
2023-01-04T15:07:00.425Z,19.38
2023-01-04T15:09:29.706Z,19.77
2023-01-04T15:11:58.281Z,18.52
2023-01-04T15:14:26.474Z,19.17
2023-01-04T15:16:54.740Z,20.67
2023-01-04T15:19:23.056Z,20.40
2023-01-04T15:21:51.325Z,19.45
2023-01-04T15:24:19.620Z,20.80
2023-01-04T15:26:49.118Z,20.45
2023-01-04T15:29:17.361Z,22.17
2023-01-04T15:31:45.707Z,21.05
2023-01-04T15:34:22.965Z,21.13
2023-01-04T15:36:52.389Z,24.77
2023-01-04T15:39:20.601Z,22.60
2023-01-04T15:42:07.696Z,22.60
2023-01-04T15:44:36.042Z,24.33
2023-01-04T15:47:04.278Z,24.70
2023-01-04T15:49:32.696Z,23.90
2023-01-04T15:52:01.987Z,24.05
2023-01-04T15:54:30.251Z,25.00
2023-01-04T15:56:58.662Z,23.08
2023-01-04T15:59:27.116Z,23.58
2023-01-04T16:02:28.544Z,25.05
2023-01-04T16:05:12.467Z,24.15
2023-01-04T16:07:44.401Z,23.92
2023-01-04T16:10:49.591Z,24.75
2023-01-04T16:13:21.913Z,23.45
2023-01-04T16:16:02.578Z,24.60
2023-01-04T16:18:32.641Z,25.17
2023-01-04T16:21:13.607Z,24.92
2023-01-04T16:24:00.110Z,25.95
2023-01-04T16:26:32.680Z,25.80
2023-01-04T16:29:00.980Z,27.48
2023-01-04T16:31:39.219Z,27.58
2023-01-04T16:34:07.540Z,26.45
2023-01-04T16:36:36.016Z,24.50
2023-01-04T16:39:04.273Z,27.35
2023-01-04T16:41:34.070Z,25.75
2023-01-04T16:44:05.540Z,26.17
2023-01-04T16:46:37.740Z,27.98
2023-01-04T16:49:34.372Z,26.73
2023-01-04T16:52:02.576Z,26.40
2023-01-04T16:54:30.716Z,26.02
2023-01-04T16:56:59.041Z,26.55
2023-01-04T16:59:27.256Z,25.65
2023-01-04T17:01:58.115Z,25.27
2023-01-04T17:04:28.174Z,26.57
2023-01-04T17:06:58.231Z,27.40
2023-01-04T17:09:26.611Z,26.17
2023-01-04T17:14:49.092Z,25.02
2023-01-04T17:17:24.802Z,25.67
2023-01-04T17:19:52.972Z,24.77
2023-01-04T17:22:21.240Z,25.02
2023-01-04T17:24:49.508Z,26.40
2023-01-04T17:27:21.058Z,25.13
2023-01-04T17:29:49.251Z,26.25
2023-01-04T17:32:17.447Z,24.70
2023-01-04T17:34:45.883Z,26.35
2023-01-04T17:37:14.072Z,24.75
2023-01-04T17:39:42.301Z,24.35
2023-01-04T17:42:10.798Z,23.88
2023-01-04T17:44:39.442Z,24.70
2023-01-04T17:47:10.218Z,25.50
2023-01-04T17:49:38.886Z,25.83
2023-01-04T17:52:08.820Z,25.92
2023-01-04T17:54:38.253Z,27.52
2023-01-04T17:57:06.538Z,25.70
2023-01-04T17:59:34.711Z,24.33
2023-01-04T18:02:03.000Z,24.77
2023-01-04T18:04:31.342Z,25.52
2023-01-04T18:06:59.578Z,25.88
2023-01-04T18:09:27.879Z,25.08
2023-01-04T18:11:56.064Z,25.02
2023-01-04T18:14:25.232Z,26.15
2023-01-04T18:16:57.434Z,26.48
2023-01-04T18:19:28.826Z,24.23
2023-01-04T18:21:57.982Z,26.67
2023-01-04T18:24:42.162Z,23.95
2023-01-04T18:27:23.631Z,24.98
2023-01-04T18:29:55.096Z,26.45
2023-01-04T18:32:25.264Z,28.45
2023-01-04T18:34:53.484Z,28.45
2023-01-04T18:37:21.956Z,27.73
2023-01-04T18:39:50.249Z,28.80
2023-01-04T18:42:18.628Z,28.08
2023-01-04T18:44:49.648Z,29.88
2023-01-04T18:47:20.494Z,29.80
2023-01-04T18:49:50.035Z,29.85
2023-01-04T18:52:19.858Z,29.40
2023-01-04T18:54:48.756Z,29.83
2023-01-04T18:57:17.137Z,28.23
2023-01-04T18:59:49.898Z,30.88
2023-01-04T19:02:20.596Z,30.25
2023-01-04T19:04:49.091Z,31.75
2023-01-04T19:07:17.838Z,31.27
2023-01-04T19:09:46.099Z,31.75
2023-01-04T19:12:14.917Z,29.77
2023-01-04T19:14:43.182Z,32.30
2023-01-04T19:17:11.954Z,31.63
2023-01-04T19:19:40.197Z,32.75
2023-01-04T19:22:08.528Z,32.95
2023-01-04T19:24:36.706Z,31.30
2023-01-04T19:27:05.303Z,32.70
2023-01-04T19:29:34.297Z,33.85
2023-01-04T19:32:03.363Z,34.60
2023-01-04T19:34:31.633Z,34.10
2023-01-04T19:37:00.153Z,35.47
2023-01-04T19:39:30.968Z,33.78
2023-01-04T19:41:59.184Z,34.78
2023-01-04T19:44:28.439Z,35.20
2023-01-04T19:46:57.686Z,35.28
2023-01-04T19:49:26.969Z,33.70
2023-01-04T19:51:56.345Z,33.25
2023-01-04T19:54:25.903Z,32.50
2023-01-04T19:56:54.852Z,32.42
2023-01-04T19:59:23.608Z,34.25
2023-01-04T20:01:52.054Z,34.38
2023-01-04T20:04:20.513Z,33.70
2023-01-04T20:06:49.151Z,32.40
2023-01-04T20:09:20.462Z,34.08
2023-01-04T20:11:48.720Z,34.83
2023-01-04T20:14:17.081Z,33.88
2023-01-04T20:16:45.405Z,32.85
2023-01-04T20:19:13.788Z,34.45
2023-01-04T20:21:43.226Z,33.72
2023-01-04T20:24:17.786Z,33.40
2023-01-04T20:26:48.036Z,33.28
2023-01-04T20:29:16.683Z,34.05
2023-01-04T20:31:46.582Z,32.92
2023-01-04T20:34:16.059Z,33.13
2023-01-04T20:36:46.546Z,33.67
2023-01-04T20:39:14.813Z,32.58
2023-01-04T20:42:03.007Z,32.75
2023-01-04T20:44:31.546Z,33.67
2023-01-04T20:47:00.987Z,30.02
2023-01-04T20:49:29.415Z,30.55
2023-01-04T20:51:57.740Z,33.67
2023-01-04T20:54:25.983Z,32.22
2023-01-04T20:56:54.215Z,32.38
2023-01-04T20:59:22.522Z,29.45
2023-01-04T21:01:50.922Z,31.23
2023-01-04T21:04:19.167Z,31.00
2023-01-04T21:06:47.594Z,30.80
2023-01-04T21:09:15.874Z,30.92
2023-01-04T21:11:44.290Z,30.95
2023-01-04T21:14:13.198Z,29.05
2023-01-04T21:16:42.018Z,31.02
2023-01-04T21:19:10.291Z,30.73
2023-01-04T21:21:39.667Z,29.58
2023-01-04T21:24:08.235Z,28.60
2023-01-04T21:26:36.509Z,28.00
2023-01-04T21:29:04.808Z,29.00
2023-01-04T21:31:33.139Z,28.10
2023-01-04T21:34:04.389Z,28.13
2023-01-04T21:36:34.976Z,28.10
2023-01-04T21:39:03.254Z,25.75
2023-01-04T21:41:31.494Z,26.15
2023-01-04T21:43:59.798Z,23.35
2023-01-04T21:46:29.521Z,22.38
2023-01-04T21:49:01.509Z,21.75
2023-01-04T21:51:30.424Z,22.60
2023-01-04T21:53:59.259Z,22.10
2023-01-04T21:56:27.640Z,21.30
2023-01-04T21:58:55.779Z,19.75
2023-01-04T22:01:32.456Z,19.10
2023-01-04T22:04:05.104Z,16.92
2023-01-04T22:06:37.287Z,15.90
2023-01-04T22:09:07.153Z,14.60
2023-01-04T22:11:35.512Z,15.18
2023-01-04T22:14:04.090Z,13.60
2023-01-04T22:16:32.392Z,15.43
2023-01-04T22:19:01.964Z,14.23
2023-01-04T22:21:30.791Z,14.77
2023-01-04T22:23:59.228Z,13.18
2023-01-04T22:26:27.573Z,15.43
2023-01-04T22:28:55.853Z,13.68
2023-01-04T22:31:24.205Z,14.55
2023-01-04T22:33:52.452Z,14.93
2023-01-04T22:36:23.393Z,15.02
2023-01-04T22:38:53.585Z,16.23
2023-01-04T22:41:24.003Z,15.48
2023-01-04T22:43:57.848Z,17.23
2023-01-04T22:46:27.119Z,16.50
2023-01-04T22:48:56.333Z,16.23
2023-01-04T22:51:27.649Z,15.43
2023-01-04T22:53:58.032Z,16.17
2023-01-04T22:56:27.535Z,17.15
2023-01-04T22:58:57.332Z,16.55
2023-01-04T23:01:28.596Z,16.80
2023-01-04T23:03:59.100Z,17.10
2023-01-04T23:06:28.755Z,16.65
2023-01-04T23:09:02.746Z,16.05
2023-01-04T23:11:32.549Z,16.70
2023-01-04T23:14:03.299Z,17.23
2023-01-04T23:16:33.668Z,16.35
2023-01-04T23:19:03.426Z,16.58
2023-01-04T23:21:37.146Z,16.85
2023-01-04T23:24:05.737Z,16.00
2023-01-04T23:26:34.294Z,17.67
2023-01-04T23:29:02.613Z,16.23
2023-01-04T23:31:32.725Z,17.05
2023-01-04T23:34:03.289Z,17.30
2023-01-04T23:36:36.742Z,16.08
2023-01-04T23:39:08.895Z,16.25
2023-01-04T23:41:46.517Z,16.92
2023-01-04T23:44:27.326Z,15.15
2023-01-04T23:47:07.567Z,15.02
2023-01-04T23:49:37.687Z,12.75
2023-01-04T23:52:07.296Z,12.07
2023-01-04T23:54:35.435Z,14.75
2023-01-04T23:57:04.467Z,13.80
2023-01-04T23:59:32.746Z,14.27
